createdAt,value
2023-01-03T12:36:16.259Z,14.80
2023-01-03T12:38:48.567Z,14.80
2023-01-03T12:41:28.111Z,14.70
2023-01-03T12:44:07.387Z,14.70
2023-01-03T12:46:41.991Z,14.70
2023-01-03T12:49:24.102Z,14.60
2023-01-03T12:51:51.062Z,14.60
2023-01-03T12:54:27.633Z,14.70
2023-01-03T12:57:24.633Z,14.60
2023-01-03T13:00:06.181Z,14.70
2023-01-03T13:02:50.209Z,14.50
2023-01-03T13:05:17.069Z,14.60
2023-01-03T13:08:17.057Z,14.50
2023-01-03T13:10:48.660Z,14.60
2023-01-03T13:13:18.935Z,14.60
2023-01-03T13:15:46.815Z,14.60
2023-01-03T13:18:17.284Z,14.60
2023-01-03T13:20:49.977Z,14.50
2023-01-03T13:23:41.417Z,14.40
2023-01-03T13:26:19.322Z,14.40
2023-01-03T13:28:46.437Z,14.40
2023-01-03T13:31:19.313Z,14.50
2023-01-03T13:33:52.140Z,14.60
2023-01-03T13:36:19.579Z,14.60
2023-01-03T13:38:46.563Z,14.50
2023-01-03T13:41:39.004Z,14.50
2023-01-03T13:44:22.207Z,14.40
2023-01-03T13:46:50.350Z,14.30
2023-01-03T13:49:26.606Z,14.40
2023-01-03T13:51:56.606Z,14.30
2023-01-03T13:54:33.729Z,14.50
2023-01-03T13:57:07.926Z,14.40
2023-01-03T13:59:42.713Z,14.40
2023-01-03T14:02:09.724Z,14.40
2023-01-03T14:05:10.412Z,14.40
2023-01-03T14:07:55.160Z,14.40
2023-01-03T14:10:43.483Z,14.40
2023-01-03T14:13:35.879Z,14.50
2023-01-03T14:16:30.716Z,14.60
2023-01-03T14:19:24.148Z,14.60
2023-01-03T14:22:21.079Z,14.70
2023-01-03T14:24:52.651Z,14.70
2023-01-03T14:27:23.196Z,14.80
2023-01-03T14:29:54.702Z,14.90
2023-01-03T14:32:34.898Z,14.90
2023-01-03T14:35:03.092Z,14.90
2023-01-03T14:37:33.093Z,14.80
2023-01-03T14:40:08.699Z,14.80
2023-01-03T14:42:35.583Z,14.80
2023-01-03T14:45:06.074Z,14.80
2023-01-03T14:47:33.204Z,14.80
2023-01-03T14:50:00.442Z,14.80
2023-01-03T14:52:27.256Z,14.80
2023-01-03T14:55:01.632Z,14.90
2023-01-03T14:57:30.800Z,14.80
2023-01-03T15:00:00.264Z,14.80
2023-01-03T15:02:33.637Z,14.80
2023-01-03T15:05:02.721Z,14.70
2023-01-03T15:07:33.834Z,14.70
2023-01-03T15:10:13.077Z,14.80
2023-01-03T15:12:44.492Z,14.80
2023-01-03T15:15:23.584Z,14.70
2023-01-03T15:17:53.937Z,14.70
2023-01-03T15:20:35.020Z,14.70
2023-01-03T15:23:02.813Z,14.80
2023-01-03T15:25:39.112Z,14.80
2023-01-03T15:28:35.684Z,14.80
2023-01-03T15:31:23.778Z,14.90
2023-01-03T15:34:17.944Z,14.90
2023-01-03T15:36:55.319Z,14.90
2023-01-03T15:39:28.402Z,14.90
2023-01-03T15:45:11.083Z,15.00
2023-01-03T15:47:38.037Z,15.00
2023-01-03T15:50:06.837Z,15.00
2023-01-03T15:52:33.835Z,15.00
2023-01-03T15:55:00.605Z,15.00
2023-01-03T15:57:30.317Z,15.00
2023-01-03T16:00:01.850Z,15.00
2023-01-03T16:02:32.318Z,15.00
2023-01-03T16:04:59.303Z,15.00
2023-01-03T16:07:26.434Z,14.90
2023-01-03T16:09:53.348Z,15.00
2023-01-03T16:12:24.989Z,15.00
2023-01-03T16:14:55.479Z,14.90
2023-01-03T16:17:25.828Z,15.00
2023-01-03T16:19:53.425Z,14.90
2023-01-03T16:22:34.467Z,15.00
2023-01-03T16:25:02.366Z,15.00
2023-01-03T16:27:29.166Z,15.00
2023-01-03T16:29:56.071Z,15.00
2023-01-03T16:32:27.458Z,15.00
2023-01-03T16:35:03.132Z,15.10
2023-01-03T16:37:30.154Z,15.10
2023-01-03T16:39:58.571Z,15.20
2023-01-03T16:42:28.674Z,15.20
2023-01-03T16:44:55.761Z,15.10
2023-01-03T16:47:23.466Z,15.10
2023-01-03T16:49:57.739Z,15.10
2023-01-03T16:52:37.622Z,15.10
2023-01-03T16:55:19.988Z,15.00
2023-01-03T16:57:53.593Z,15.00
2023-01-03T17:00:24.101Z,15.00
2023-01-03T17:02:51.137Z,15.10
2023-01-03T17:05:21.079Z,15.10
2023-01-03T17:07:50.922Z,15.10
2023-01-03T17:10:28.019Z,15.10
2023-01-03T17:12:55.772Z,15.20
2023-01-03T17:15:22.657Z,15.10
2023-01-03T17:17:49.521Z,15.10
2023-01-03T17:20:18.373Z,15.00
2023-01-03T17:22:56.307Z,15.00
2023-01-03T17:25:23.662Z,15.00
2023-01-03T17:27:54.814Z,15.00
2023-01-03T17:30:25.107Z,15.10
2023-01-03T17:32:52.039Z,15.10
2023-01-03T17:35:21.675Z,15.10
2023-01-03T17:40:44.617Z,15.10
2023-01-03T17:43:22.284Z,15.10
2023-01-03T17:46:10.622Z,15.10
2023-01-03T17:48:55.838Z,15.20
2023-01-03T17:51:23.168Z,15.20
2023-01-03T17:53:51.068Z,15.10
2023-01-03T17:56:19.247Z,15.20
2023-01-03T17:58:55.672Z,15.30
2023-01-03T18:01:23.517Z,15.20
2023-01-03T18:03:50.783Z,15.30
2023-01-03T18:06:25.861Z,15.30
2023-01-03T18:08:53.371Z,15.30
2023-01-03T18:11:22.781Z,15.30
2023-01-03T18:13:49.853Z,15.20
2023-01-03T18:16:20.023Z,15.20
2023-01-03T18:18:47.632Z,15.20
2023-01-03T18:21:19.275Z,15.20
2023-01-03T18:23:46.424Z,15.20
2023-01-03T18:26:16.223Z,15.20
2023-01-03T18:28:43.556Z,15.20
2023-01-03T18:31:15.733Z,15.20
2023-01-03T18:33:43.008Z,15.20
2023-01-03T18:36:28.097Z,15.10
2023-01-03T18:39:04.349Z,15.10
2023-01-03T18:41:33.948Z,15.10
2023-01-03T18:44:01.040Z,15.10
2023-01-03T18:46:28.871Z,15.10
2023-01-03T18:48:56.227Z,15.00
2023-01-03T18:51:27.284Z,15.10
2023-01-03T18:53:57.777Z,15.10
2023-01-03T18:56:28.441Z,15.00
2023-01-03T18:59:02.252Z,14.80
2023-01-03T19:01:29.911Z,14.80
2023-01-03T19:03:58.404Z,14.90
2023-01-03T19:06:30.436Z,14.90
2023-01-03T19:09:02.899Z,15.00
2023-01-03T19:11:39.923Z,15.10
2023-01-03T19:14:07.503Z,15.10
2023-01-03T19:16:37.233Z,15.10
2023-01-03T19:19:05.249Z,15.10
2023-01-03T19:21:35.511Z,15.10
2023-01-03T19:24:14.054Z,15.10
2023-01-03T19:26:46.812Z,15.10
2023-01-03T19:29:26.205Z,15.10
2023-01-03T19:31:55.976Z,15.10
2023-01-03T19:34:25.189Z,15.10
2023-01-03T19:36:52.466Z,15.00
2023-01-03T19:39:24.707Z,15.00
2023-01-03T19:42:14.472Z,15.00
2023-01-03T19:44:42.060Z,14.80
2023-01-03T19:47:14.592Z,14.70
2023-01-03T19:49:42.257Z,14.50
2023-01-03T19:52:09.181Z,14.70
2023-01-03T19:54:35.964Z,14.70
2023-01-03T19:57:02.905Z,14.70
2023-01-03T19:59:38.165Z,14.50
2023-01-03T20:02:26.456Z,14.40
2023-01-03T20:04:53.535Z,14.40
2023-01-03T20:07:20.535Z,14.50
2023-01-03T20:09:47.334Z,14.60
2023-01-03T20:12:15.452Z,14.70
2023-01-03T20:14:47.075Z,14.80
2023-01-03T20:17:25.456Z,14.90
2023-01-03T20:19:52.811Z,14.80
2023-01-03T20:23:02.628Z,14.90
2023-01-03T20:25:27.517Z,15.00
2023-01-03T20:27:55.258Z,15.00
2023-01-03T20:30:24.128Z,15.00
2023-01-03T20:32:51.234Z,15.00
2023-01-03T20:38:11.017Z,15.00
2023-01-03T20:40:38.111Z,15.00
2023-01-03T20:43:05.575Z,15.00
2023-01-03T20:45:32.859Z,15.00
2023-01-03T20:48:00.952Z,14.90
2023-01-03T20:50:29.229Z,14.90
2023-01-03T20:52:57.411Z,14.90
2023-01-03T20:55:26.676Z,14.80
2023-01-03T20:57:53.615Z,14.70
2023-01-03T21:00:32.549Z,14.60
2023-01-03T21:02:59.622Z,14.50
2023-01-03T21:05:26.815Z,14.40
2023-01-03T21:08:12.187Z,14.50
2023-01-03T21:10:41.880Z,14.50
2023-01-03T21:13:10.001Z,14.30
2023-01-03T21:15:38.041Z,14.20
2023-01-03T21:18:06.143Z,14.10
2023-01-03T21:20:33.678Z,14.00
2023-01-03T21:23:00.901Z,14.10
2023-01-03T21:25:38.485Z,14.00
2023-01-03T21:28:05.452Z,13.90
2023-01-03T21:30:32.832Z,13.80
2023-01-03T21:32:59.787Z,13.90
2023-01-03T21:35:26.815Z,13.80
2023-01-03T21:37:54.684Z,13.90
2023-01-03T21:40:25.165Z,14.00
2023-01-03T21:43:04.099Z,14.20
2023-01-03T21:45:48.926Z,14.20
2023-01-03T21:48:18.118Z,14.10
2023-01-03T21:50:47.321Z,14.10
2023-01-03T21:53:15.744Z,13.90
2023-01-03T21:55:42.716Z,13.80
2023-01-03T21:58:13.652Z,13.70
2023-01-03T22:00:40.878Z,13.60
2023-01-03T22:03:29.638Z,13.60
2023-01-03T22:06:13.856Z,13.80
2023-01-03T22:08:41.233Z,13.80
2023-01-03T22:11:08.299Z,13.60
2023-01-03T22:13:38.290Z,13.50
2023-01-03T22:16:07.537Z,13.50
2023-01-03T22:18:35.375Z,13.40
2023-01-03T22:21:07.832Z,13.40
2023-01-03T22:23:38.465Z,13.30
2023-01-03T22:26:12.149Z,13.20
2023-01-03T22:28:42.064Z,13.10
2023-01-03T22:31:16.229Z,13.10
2023-01-03T22:33:44.666Z,13.20
2023-01-03T22:36:11.989Z,13.30
2023-01-03T22:38:39.613Z,13.50
2023-01-03T22:41:10.322Z,13.30
2023-01-03T22:43:37.155Z,13.30
2023-01-03T22:46:12.754Z,13.20
2023-01-03T22:48:40.489Z,13.30
2023-01-03T22:51:10.467Z,13.30
2023-01-03T22:53:39.566Z,13.20
2023-01-03T22:56:08.630Z,13.30
2023-01-03T22:58:36.987Z,13.50
2023-01-03T23:01:14.920Z,13.50
2023-01-03T23:03:43.011Z,13.60
2023-01-03T23:06:14.143Z,13.60
2023-01-03T23:08:42.239Z,13.70
2023-01-03T23:11:33.957Z,13.70
2023-01-03T23:14:03.287Z,13.80
2023-01-03T23:16:32.152Z,13.80
2023-01-03T23:19:01.991Z,13.80
2023-01-03T23:21:28.816Z,13.90
2023-01-03T23:23:55.778Z,13.80
2023-01-03T23:26:22.890Z,13.70
2023-01-03T23:28:49.878Z,13.70
2023-01-03T23:31:16.801Z,13.50
2023-01-03T23:33:43.679Z,13.40
2023-01-03T23:36:13.195Z,13.30
2023-01-03T23:38:40.004Z,13.20
2023-01-03T23:41:09.347Z,13.30
2023-01-03T23:43:37.496Z,13.40
2023-01-03T23:46:05.931Z,13.50
2023-01-03T23:48:32.971Z,13.50
2023-01-03T23:51:05.093Z,13.60
2023-01-03T23:53:35.528Z,13.60
2023-01-03T23:56:07.144Z,13.60
2023-01-03T23:58:34.917Z,13.50
